createdAt,value
2018-05-02T00:00:03.194Z,1.50
2018-05-02T00:02:33.623Z,2.30
2018-05-02T00:05:03.232Z,1.20
2018-05-02T00:07:32.848Z,2.60
2018-05-02T00:10:02.505Z,3.20
2018-05-02T00:12:32.155Z,2.23
2018-05-02T00:15:01.782Z,4.20
2018-05-02T00:17:31.441Z,1.70
2018-05-02T00:20:01.061Z,1.47
2018-05-02T00:22:30.684Z,1.87
2018-05-02T00:25:00.336Z,3.47
2018-05-02T00:27:29.964Z,2.43
2018-05-02T00:29:59.682Z,3.30
2018-05-02T00:32:29.304Z,1.73
2018-05-02T00:34:58.924Z,2.23
2018-05-02T00:37:28.584Z,4.60
2018-05-02T00:39:58.199Z,1.73
2018-05-02T00:42:27.806Z,5.47
2018-05-02T00:44:57.476Z,3.03
2018-05-02T00:47:27.100Z,2.63
2018-05-02T00:49:56.747Z,4.73
2018-05-02T00:52:26.506Z,2.20
2018-05-02T00:54:56.135Z,2.17
2018-05-02T00:57:25.755Z,2.33
2018-05-02T00:59:55.432Z,4.53
2018-05-02T01:02:25.059Z,3.40
2018-05-02T01:04:54.679Z,1.93
2018-05-02T01:07:24.352Z,3.10
2018-05-02T01:09:53.965Z,3.00
2018-05-02T01:12:23.615Z,2.40
2018-05-02T01:14:53.272Z,1.67
2018-05-02T01:17:22.912Z,1.90
2018-05-02T01:19:52.543Z,2.87
2018-05-02T01:22:22.190Z,2.23
2018-05-02T01:24:51.813Z,1.90
2018-05-02T01:27:21.468Z,2.47
2018-05-02T01:29:51.360Z,1.60
2018-05-02T01:32:20.992Z,2.90
2018-05-02T01:34:50.600Z,5.10
2018-05-02T01:37:20.254Z,1.33
2018-05-02T01:39:49.591Z,1.97
2018-05-02T01:42:19.209Z,1.77
2018-05-02T01:44:48.867Z,2.10
2018-05-02T01:47:18.502Z,2.70
2018-05-02T01:49:48.190Z,1.50
2018-05-02T01:52:17.849Z,2.13
2018-05-02T01:54:47.466Z,1.67
2018-05-02T01:57:17.112Z,1.77
2018-05-02T01:59:46.811Z,2.57
2018-05-02T02:02:16.423Z,3.43
2018-05-02T02:04:46.092Z,3.07
2018-05-02T02:07:15.434Z,2.07
2018-05-02T02:09:44.785Z,1.40
2018-05-02T02:12:14.172Z,1.57
2018-05-02T02:14:43.636Z,2.20
2018-05-02T02:17:13.418Z,3.40
2018-05-02T02:19:43.081Z,1.83
2018-05-02T02:22:12.700Z,1.93
2018-05-02T02:24:42.306Z,1.70
2018-05-02T02:27:11.972Z,2.13
2018-05-02T02:29:41.607Z,3.87
2018-05-02T02:32:11.254Z,1.50
2018-05-02T02:34:40.951Z,2.27
2018-05-02T02:37:10.569Z,2.13
2018-05-02T02:39:40.200Z,1.70
2018-05-02T02:42:09.869Z,2.37
2018-05-02T02:44:39.494Z,3.10
2018-05-02T02:47:09.136Z,1.93
2018-05-02T02:49:38.805Z,2.60
2018-05-02T02:52:08.419Z,2.63
2018-05-02T02:54:37.813Z,2.93
2018-05-02T02:57:07.470Z,2.10
2018-05-02T02:59:37.088Z,2.83
2018-05-02T03:02:06.699Z,4.90
2018-05-02T03:04:36.366Z,7.17
2018-05-02T03:07:05.667Z,3.73
2018-05-02T03:09:35.508Z,2.93
2018-05-02T03:12:05.192Z,6.23
2018-05-02T03:14:34.805Z,7.47
2018-05-02T03:17:04.420Z,10.77
2018-05-02T03:19:34.091Z,3.53
2018-05-02T03:22:03.692Z,2.50
2018-05-02T03:24:33.308Z,2.10
2018-05-02T03:27:02.975Z,2.80
2018-05-02T03:29:32.531Z,2.77
2018-05-02T03:32:02.157Z,3.87
2018-05-02T03:34:31.834Z,2.13
2018-05-02T03:37:01.534Z,2.97
2018-05-02T03:39:31.144Z,2.37
2018-05-02T03:42:00.802Z,4.57
2018-05-02T03:44:30.406Z,2.87
2018-05-02T03:47:00.024Z,3.93
2018-05-02T03:49:29.702Z,2.83
2018-05-02T03:51:59.315Z,4.73
2018-05-02T03:54:28.930Z,4.30
2018-05-02T03:56:58.590Z,4.60
2018-05-02T03:59:39.528Z,5.33
2018-05-02T04:02:20.259Z,3.23
2018-05-02T04:05:00.830Z,1.90
2018-05-02T04:07:30.234Z,2.20
2018-05-02T04:09:59.842Z,7.40
2018-05-02T04:12:29.220Z,1.73
2018-05-02T04:14:58.878Z,3.30
2018-05-02T04:17:28.517Z,3.37
2018-05-02T04:19:58.135Z,2.90
2018-05-02T04:22:27.805Z,2.40
2018-05-02T04:24:57.420Z,2.20
2018-05-02T04:27:27.031Z,2.27
2018-05-02T04:29:56.687Z,4.90
2018-05-02T04:32:26.298Z,3.37
2018-05-02T04:34:55.916Z,4.13
2018-05-02T04:37:25.316Z,2.60
2018-05-02T04:39:54.936Z,4.10
2018-05-02T04:42:24.589Z,3.27
2018-05-02T04:44:54.275Z,2.17
2018-05-02T04:47:23.897Z,2.87
2018-05-02T04:49:53.535Z,3.03
2018-05-02T04:52:23.194Z,4.13
2018-05-02T04:54:52.807Z,2.27
2018-05-02T04:57:22.434Z,5.07
2018-05-02T04:59:52.100Z,1.63
2018-05-02T05:02:21.717Z,3.93
2018-05-02T05:04:51.402Z,2.10
2018-05-02T05:07:21.091Z,2.30
2018-05-02T05:09:50.711Z,2.03
2018-05-02T05:12:20.404Z,2.70
2018-05-02T05:14:50.221Z,1.30
2018-05-02T05:17:19.831Z,2.70
2018-05-02T05:19:49.480Z,1.90
2018-05-02T05:22:19.142Z,3.53
2018-05-02T05:24:48.754Z,3.10
2018-05-02T05:27:18.394Z,3.77
2018-05-02T05:29:48.055Z,5.27
2018-05-02T05:32:17.676Z,3.30
2018-05-02T05:34:47.302Z,3.57
2018-05-02T05:37:16.954Z,2.77
2018-05-02T05:39:46.593Z,4.27
2018-05-02T05:42:16.210Z,4.10
2018-05-02T05:44:45.858Z,6.97
2018-05-02T05:47:15.500Z,4.23
2018-05-02T05:49:45.107Z,1.97
2018-05-02T05:52:14.757Z,1.97
2018-05-02T05:54:44.405Z,3.63
2018-05-02T05:57:14.029Z,3.67
2018-05-02T05:59:43.691Z,2.53
2018-05-02T06:02:13.306Z,3.63
2018-05-02T06:04:42.925Z,2.63
2018-05-02T06:07:13.311Z,5.53
2018-05-02T06:09:42.947Z,2.73
2018-05-02T06:12:12.557Z,2.93
2018-05-02T06:14:42.214Z,1.63
2018-05-02T06:17:11.842Z,1.73
2018-05-02T06:19:41.454Z,2.47
2018-05-02T06:22:11.117Z,2.00
2018-05-02T06:24:40.734Z,1.87
2018-05-02T06:27:10.372Z,2.80
2018-05-02T06:29:40.036Z,4.60
2018-05-02T06:32:09.669Z,1.60
2018-05-02T06:34:39.308Z,2.83
2018-05-02T06:37:08.966Z,1.70
2018-05-02T06:39:38.354Z,1.17
2018-05-02T06:42:08.047Z,2.87
2018-05-02T06:44:37.875Z,2.87
2018-05-02T06:47:07.487Z,3.20
2018-05-02T06:49:37.128Z,3.97
2018-05-02T06:52:06.805Z,2.57
2018-05-02T06:54:36.459Z,3.63
2018-05-02T06:57:06.325Z,3.43
2018-05-02T06:59:35.980Z,2.17
2018-05-02T07:02:05.604Z,1.83
2018-05-02T07:04:35.237Z,1.20
2018-05-02T07:07:04.904Z,1.60
2018-05-02T07:09:34.519Z,2.90
2018-05-02T07:12:04.163Z,2.97
2018-05-02T07:14:33.823Z,2.77
2018-05-02T07:17:03.439Z,3.00
2018-05-02T07:19:33.077Z,5.60
2018-05-02T07:22:02.711Z,2.70
2018-05-02T07:24:32.338Z,3.53
2018-05-02T07:27:01.975Z,4.73
2018-05-02T07:29:31.670Z,5.03
2018-05-02T07:32:01.287Z,4.03
2018-05-02T07:34:30.930Z,3.83
2018-05-02T07:37:00.579Z,2.53
2018-05-02T07:39:30.208Z,2.37
2018-05-02T07:41:59.826Z,2.57
2018-05-02T07:44:29.542Z,2.73
2018-05-02T07:46:59.170Z,3.97
2018-05-02T07:49:28.781Z,2.50
2018-05-02T07:51:58.493Z,2.73
2018-05-02T07:54:28.108Z,2.70
2018-05-02T07:56:57.740Z,3.17
2018-05-02T07:59:27.620Z,3.00
2018-05-02T08:01:57.232Z,3.73
2018-05-02T08:04:26.895Z,3.33
2018-05-02T08:06:56.562Z,2.27
2018-05-02T08:09:26.195Z,1.93
2018-05-02T08:11:55.871Z,1.97
2018-05-02T08:14:26.013Z,6.60
2018-05-02T08:16:55.753Z,2.43
2018-05-02T08:19:25.377Z,2.17
2018-05-02T08:21:55.030Z,2.03
2018-05-02T08:24:24.652Z,2.97
2018-05-02T08:26:54.279Z,4.83
2018-05-02T08:29:24.153Z,2.60
2018-05-02T08:31:53.788Z,3.73
2018-05-02T08:34:23.408Z,2.33
2018-05-02T08:36:53.079Z,3.70
2018-05-02T08:39:22.734Z,3.20
2018-05-02T08:41:52.338Z,4.17
2018-05-02T08:44:22.013Z,1.77
2018-05-02T08:46:51.730Z,1.63
2018-05-02T08:49:21.369Z,2.57
2018-05-02T08:51:51.015Z,1.37
2018-05-02T08:54:20.632Z,1.97
2018-05-02T08:56:50.238Z,2.60
2018-05-02T08:59:19.940Z,3.67
2018-05-02T09:01:49.647Z,3.70
2018-05-02T09:04:19.420Z,3.60
2018-05-02T09:06:49.082Z,2.87
2018-05-02T09:09:18.721Z,2.80
2018-05-02T09:11:48.335Z,3.23
2018-05-02T09:14:18.254Z,3.27
2018-05-02T09:16:47.968Z,3.03
2018-05-02T09:19:17.639Z,2.73
2018-05-02T09:21:49.089Z,2.47
2018-05-02T09:24:19.976Z,4.17
2018-05-02T09:26:49.639Z,4.87
2018-05-02T09:29:18.933Z,5.37
2018-05-02T09:31:48.566Z,2.70
2018-05-02T09:34:18.235Z,2.03
2018-05-02T09:36:47.842Z,6.40
2018-05-02T09:39:17.184Z,4.03
2018-05-02T09:41:46.839Z,4.07
2018-05-02T09:44:16.475Z,2.93
2018-05-02T09:46:46.100Z,3.17
2018-05-02T09:49:15.815Z,4.73
2018-05-02T09:51:45.436Z,4.30
2018-05-02T09:54:15.063Z,3.30
2018-05-02T09:56:44.724Z,5.27
2018-05-02T09:59:14.341Z,2.73
2018-05-02T10:01:43.966Z,3.30
2018-05-02T10:04:13.615Z,4.47
2018-05-02T10:06:43.235Z,4.30
2018-05-02T10:09:12.838Z,7.40
2018-05-02T10:11:42.533Z,4.67
2018-05-02T10:14:11.906Z,2.43
2018-05-02T10:16:41.519Z,3.17
2018-05-02T10:19:11.170Z,5.33
2018-05-02T10:21:40.507Z,5.57
2018-05-02T10:24:10.135Z,3.63
2018-05-02T10:26:39.807Z,4.07
2018-05-02T10:29:09.433Z,4.17
2018-05-02T10:31:39.055Z,4.60
2018-05-02T10:34:08.800Z,6.47
2018-05-02T10:36:38.295Z,8.03
2018-05-02T10:39:07.588Z,4.10
2018-05-02T10:41:36.902Z,3.77
2018-05-02T10:44:06.514Z,5.13
2018-05-02T10:46:36.136Z,6.53
2018-05-02T10:49:05.521Z,3.03
2018-05-02T10:51:34.967Z,3.97
2018-05-02T10:54:04.582Z,4.57
2018-05-02T10:56:34.351Z,6.50
2018-05-02T10:59:03.958Z,4.70
2018-05-02T11:01:33.582Z,6.90
2018-05-02T11:04:03.245Z,4.97
2018-05-02T11:06:32.952Z,3.97
2018-05-02T11:09:02.581Z,4.13
2018-05-02T11:11:32.240Z,6.13
2018-05-02T11:14:01.866Z,4.73
2018-05-02T11:16:31.250Z,8.63
2018-05-02T11:19:00.898Z,6.57
2018-05-02T11:21:30.510Z,4.00
2018-05-02T11:24:00.155Z,5.57
2018-05-02T11:26:29.933Z,4.77
2018-05-02T11:28:59.322Z,5.90
2018-05-02T11:31:29.180Z,5.60
2018-05-02T11:33:58.826Z,5.03
2018-05-02T11:36:28.434Z,4.57
2018-05-02T11:38:58.110Z,8.80
2018-05-02T11:41:27.725Z,5.03
2018-05-02T11:43:57.335Z,5.27
2018-05-02T11:46:27.000Z,6.47
2018-05-02T11:48:56.632Z,4.87
2018-05-02T11:51:26.263Z,4.30
2018-05-02T11:53:55.667Z,7.37
2018-05-02T11:56:25.287Z,4.90
2018-05-02T11:58:54.910Z,5.27
2018-05-02T12:01:24.963Z,7.67
2018-05-02T12:03:54.588Z,5.10
2018-05-02T12:06:24.237Z,5.97
2018-05-02T12:08:53.951Z,7.37
2018-05-02T12:11:23.571Z,6.97
2018-05-02T12:13:53.215Z,7.93
2018-05-02T12:16:22.831Z,6.67
2018-05-02T12:18:52.457Z,5.43
2018-05-02T12:21:22.118Z,5.13
2018-05-02T12:23:51.744Z,7.73
2018-05-02T12:26:21.372Z,10.17
2018-05-02T12:28:50.993Z,4.87
2018-05-02T12:31:21.346Z,7.07
2018-05-02T12:33:51.012Z,5.90
2018-05-02T12:36:21.288Z,8.37
2018-05-02T12:38:50.944Z,7.33
2018-05-02T12:41:20.570Z,7.33
2018-05-02T12:43:50.207Z,11.70
2018-05-02T12:46:19.841Z,8.97
2018-05-02T12:48:49.466Z,8.73
2018-05-02T12:51:19.135Z,6.80
2018-05-02T12:53:48.831Z,8.37
2018-05-02T12:56:18.552Z,7.27
2018-05-02T12:58:48.315Z,8.83
2018-05-02T13:01:17.937Z,8.20
2018-05-02T13:03:47.612Z,8.57
2018-05-02T13:06:17.244Z,9.43
2018-05-02T13:08:46.898Z,9.43
2018-05-02T13:11:16.530Z,6.60
2018-05-02T13:13:46.163Z,13.00
2018-05-02T13:16:15.909Z,10.70
2018-05-02T13:18:45.536Z,10.43
2018-05-02T13:21:15.162Z,9.20
2018-05-02T13:23:44.798Z,12.47
2018-05-02T13:26:14.489Z,9.87
2018-05-02T13:28:44.175Z,9.43
2018-05-02T13:31:13.806Z,17.03
2018-05-02T13:33:43.431Z,8.47
2018-05-02T13:36:13.043Z,8.07
2018-05-02T13:38:42.662Z,10.30
2018-05-02T13:41:12.322Z,9.97
2018-05-02T13:43:41.955Z,12.87
2018-05-02T13:46:11.588Z,7.60
2018-05-02T13:48:41.212Z,8.30
2018-05-02T13:51:10.835Z,6.40
2018-05-02T13:53:40.494Z,8.60
2018-05-02T13:56:10.148Z,7.77
2018-05-02T13:58:39.806Z,12.20
2018-05-02T14:01:09.423Z,8.73
2018-05-02T14:03:39.051Z,9.73
2018-05-02T14:06:08.727Z,9.00
2018-05-02T14:08:38.567Z,8.43
2018-05-02T14:11:08.219Z,11.37
2018-05-02T14:13:37.833Z,10.10
2018-05-02T14:16:07.454Z,8.20
2018-05-02T14:18:37.119Z,8.27
2018-05-02T14:21:06.735Z,11.17
2018-05-02T14:23:36.364Z,9.57
2018-05-02T14:26:05.995Z,11.80
2018-05-02T14:28:35.629Z,10.13
2018-05-02T14:31:05.303Z,12.40
2018-05-02T14:33:34.932Z,7.07
2018-05-02T14:36:04.568Z,10.17
2018-05-02T14:38:34.193Z,8.27
2018-05-02T14:41:03.801Z,10.23
2018-05-02T14:43:33.473Z,10.17
2018-05-02T14:46:03.128Z,8.47
2018-05-02T14:48:32.766Z,7.97
2018-05-02T14:51:02.400Z,11.50
2018-05-02T14:53:32.019Z,9.37
2018-05-02T14:56:01.671Z,9.77
2018-05-02T14:58:31.289Z,7.93
2018-05-02T15:01:00.910Z,7.80
2018-05-02T15:03:30.520Z,9.10
2018-05-02T15:06:00.135Z,9.43
2018-05-02T15:08:29.535Z,8.70
2018-05-02T15:10:59.147Z,12.63
2018-05-02T15:13:28.766Z,9.27
2018-05-02T15:15:58.398Z,9.63
2018-05-02T15:18:28.015Z,10.63
2018-05-02T15:20:57.691Z,8.27
2018-05-02T15:23:27.294Z,8.93
2018-05-02T15:25:56.909Z,10.00
2018-05-02T15:28:26.537Z,5.83
2018-05-02T15:30:56.157Z,11.17
2018-05-02T15:33:25.825Z,9.20
2018-05-02T15:35:55.441Z,7.97
2018-05-02T15:38:25.055Z,6.63
2018-05-02T15:40:54.691Z,9.43
2018-05-02T15:43:24.305Z,9.73
2018-05-02T15:45:53.979Z,9.60
2018-05-02T15:48:23.597Z,9.00
2018-05-02T15:50:53.256Z,8.87
2018-05-02T15:53:22.881Z,8.77
2018-05-02T15:55:52.499Z,13.50
2018-05-02T15:58:22.192Z,8.53
2018-05-02T16:00:52.017Z,8.60
2018-05-02T16:03:21.684Z,8.50
2018-05-02T16:05:51.304Z,8.73
2018-05-02T16:08:20.943Z,10.60
2018-05-02T16:10:50.641Z,8.47
2018-05-02T16:13:20.265Z,8.77
2018-05-02T16:15:50.122Z,6.93
2018-05-02T16:18:19.749Z,10.43
2018-05-02T16:20:49.387Z,9.67
2018-05-02T16:23:19.017Z,10.07
2018-05-02T16:25:48.654Z,10.40
2018-05-02T16:28:18.281Z,6.87
2018-05-02T16:30:47.937Z,8.10
2018-05-02T16:33:17.603Z,6.53
2018-05-02T16:35:47.407Z,11.77
2018-05-02T16:38:17.055Z,9.47
2018-05-02T16:40:46.791Z,7.17
2018-05-02T16:43:16.417Z,7.37
2018-05-02T16:45:46.051Z,10.83
2018-05-02T16:48:15.671Z,9.27
2018-05-02T16:50:45.337Z,9.70
2018-05-02T16:53:14.961Z,9.80
2018-05-02T16:55:44.583Z,11.53
2018-05-02T16:58:14.289Z,8.67
2018-05-02T17:00:43.902Z,10.33
2018-05-02T17:03:13.650Z,8.03
2018-05-02T17:05:43.270Z,9.67
2018-05-02T17:08:12.894Z,11.73
2018-05-02T17:10:42.520Z,7.97
2018-05-02T17:13:12.160Z,12.73
2018-05-02T17:15:41.849Z,9.23
2018-05-02T17:18:11.474Z,9.30
2018-05-02T17:20:40.812Z,10.17
2018-05-02T17:23:10.447Z,10.37
2018-05-02T17:25:40.078Z,9.90
2018-05-02T17:28:09.749Z,12.20
2018-05-02T17:30:39.538Z,13.83
2018-05-02T17:33:09.162Z,8.47
2018-05-02T17:35:38.778Z,10.00
2018-05-02T17:38:08.395Z,9.90
2018-05-02T17:40:38.042Z,11.33
2018-05-02T17:43:07.666Z,9.03
2018-05-02T17:45:37.280Z,11.30
2018-05-02T17:48:06.931Z,10.00
2018-05-02T17:50:36.548Z,9.43
2018-05-02T17:53:05.946Z,10.37
2018-05-02T17:55:35.580Z,12.23
2018-05-02T17:58:05.220Z,13.10
2018-05-02T18:00:34.854Z,12.77
2018-05-02T18:03:04.472Z,11.77
2018-05-02T18:05:34.162Z,16.27
2018-05-02T18:08:03.989Z,17.50
2018-05-02T18:10:33.728Z,19.73
2018-05-02T18:13:03.551Z,16.07
2018-05-02T18:15:33.189Z,13.53
2018-05-02T18:18:02.857Z,14.40
2018-05-02T18:20:32.493Z,12.67
2018-05-02T18:23:02.133Z,14.67
2018-05-02T18:25:31.828Z,13.47
2018-05-02T18:28:01.534Z,11.57
2018-05-02T18:30:31.364Z,14.57
2018-05-02T18:33:01.007Z,15.20
2018-05-02T18:35:30.647Z,17.90
2018-05-02T18:38:00.293Z,19.70
2018-05-02T18:40:29.929Z,16.77
2018-05-02T18:42:59.651Z,15.07
2018-05-02T18:45:29.292Z,15.70
2018-05-02T18:47:58.941Z,17.80
2018-05-02T18:50:28.569Z,14.20
2018-05-02T18:52:58.204Z,18.70
2018-05-02T18:55:27.896Z,17.67
2018-05-02T18:57:57.533Z,21.80
2018-05-02T19:00:27.163Z,19.97
2018-05-02T19:02:56.789Z,13.40
2018-05-02T19:05:26.428Z,13.60
2018-05-02T19:07:56.134Z,11.30
2018-05-02T19:10:25.761Z,14.47
2018-05-02T19:12:55.393Z,12.77
2018-05-02T19:15:25.028Z,14.03
2018-05-02T19:17:59.960Z,11.23
2018-05-02T19:20:34.937Z,13.10
2018-05-02T19:23:04.261Z,14.07
2018-05-02T19:25:39.152Z,13.83
2018-05-02T19:28:08.793Z,12.83
2018-05-02T19:30:38.460Z,14.47
2018-05-02T19:33:13.436Z,11.97
2018-05-02T19:35:43.123Z,15.13
2018-05-02T19:38:12.767Z,17.53
2018-05-02T19:40:47.849Z,13.50
2018-05-02T19:43:22.762Z,16.17
2018-05-02T19:45:52.436Z,17.43
2018-05-02T19:48:22.079Z,14.53
2018-05-02T19:50:57.104Z,12.67
2018-05-02T19:53:26.754Z,12.83
2018-05-02T19:55:56.409Z,12.83
2018-05-02T19:58:26.033Z,15.77
2018-05-02T20:01:00.926Z,12.17
2018-05-02T20:03:30.563Z,17.73
2018-05-02T20:06:00.183Z,13.40
2018-05-02T20:08:35.127Z,12.87
2018-05-02T20:11:10.024Z,13.67
2018-05-02T20:13:44.975Z,16.03
2018-05-02T20:16:14.811Z,14.33
2018-05-02T20:18:44.484Z,12.63
2018-05-02T20:21:14.136Z,16.23
2018-05-02T20:23:43.761Z,19.67
2018-05-02T20:26:13.399Z,15.63
2018-05-02T20:28:44.221Z,16.90
2018-05-02T20:31:13.949Z,17.53
2018-05-02T20:33:43.313Z,14.50
2018-05-02T20:36:12.935Z,14.63
2018-05-02T20:38:44.248Z,17.70
2018-05-02T20:41:13.874Z,18.47
2018-05-02T20:43:43.560Z,16.87
2018-05-02T20:46:13.198Z,15.70
2018-05-02T20:48:42.826Z,17.30
2018-05-02T20:51:12.491Z,14.63
2018-05-02T20:53:41.846Z,14.37
2018-05-02T20:56:11.477Z,15.83
2018-05-02T20:58:41.109Z,17.00
2018-05-02T21:01:10.735Z,14.03
2018-05-02T21:03:40.352Z,17.07
2018-05-02T21:06:09.980Z,16.10
2018-05-02T21:08:39.605Z,17.47
2018-05-02T21:11:09.239Z,16.63
2018-05-02T21:13:38.921Z,14.23
2018-05-02T21:16:08.599Z,14.73
2018-05-02T21:18:38.259Z,17.30
2018-05-02T21:21:07.894Z,17.57
2018-05-02T21:23:37.531Z,17.17
2018-05-02T21:26:07.208Z,18.53
2018-05-02T21:28:36.939Z,16.10
2018-05-02T21:31:06.271Z,16.93
2018-05-02T21:33:36.092Z,19.90
2018-05-02T21:36:05.722Z,16.77
2018-05-02T21:38:35.348Z,15.57
2018-05-02T21:41:04.980Z,17.67
2018-05-02T21:43:34.620Z,16.60
2018-05-02T21:46:04.247Z,16.77
2018-05-02T21:48:33.895Z,19.17
2018-05-02T21:51:03.522Z,17.40
2018-05-02T21:53:33.190Z,17.27
2018-05-02T21:56:02.811Z,17.53
2018-05-02T21:58:32.197Z,19.20
2018-05-02T22:01:01.859Z,17.67
2018-05-02T22:03:31.218Z,20.73
2018-05-02T22:06:00.896Z,20.43
2018-05-02T22:08:30.519Z,19.47
2018-05-02T22:11:00.173Z,18.17
2018-05-02T22:13:29.815Z,18.70
2018-05-02T22:15:59.435Z,16.50
2018-05-02T22:18:29.192Z,16.87
2018-05-02T22:20:58.810Z,17.10
2018-05-02T22:23:28.456Z,19.17
2018-05-02T22:25:58.110Z,21.57
2018-05-02T22:28:27.743Z,17.00
2018-05-02T22:30:57.384Z,20.03
2018-05-02T22:33:27.019Z,18.20
2018-05-02T22:35:56.704Z,18.23
2018-05-02T22:38:26.337Z,20.60
2018-05-02T22:40:56.013Z,19.80
2018-05-02T22:43:25.642Z,19.47
2018-05-02T22:45:55.263Z,22.07
2018-05-02T22:48:24.894Z,21.93
2018-05-02T22:50:54.526Z,22.97
2018-05-02T22:53:24.206Z,19.50
2018-05-02T22:55:53.833Z,20.37
2018-05-02T22:58:23.458Z,20.53
2018-05-02T23:00:53.083Z,19.10
2018-05-02T23:03:22.716Z,19.20
2018-05-02T23:05:52.395Z,17.90
2018-05-02T23:08:22.027Z,19.93
2018-05-02T23:10:51.650Z,17.40
2018-05-02T23:13:21.279Z,18.30
2018-05-02T23:15:50.917Z,20.37
2018-05-02T23:18:20.749Z,20.03
2018-05-02T23:20:50.603Z,19.93
2018-05-02T23:23:20.270Z,22.07
2018-05-02T23:25:49.909Z,18.33
2018-05-02T23:28:19.539Z,20.57
2018-05-02T23:30:49.166Z,19.37
2018-05-02T23:33:18.806Z,22.40
2018-05-02T23:35:48.199Z,21.80
2018-05-02T23:38:17.895Z,22.83
2018-05-02T23:40:47.561Z,19.17
2018-05-02T23:43:17.213Z,23.23
2018-05-02T23:45:46.848Z,21.13
2018-05-02T23:48:16.531Z,19.93
2018-05-02T23:50:46.152Z,20.93
2018-05-02T23:53:15.831Z,18.97
2018-05-02T23:55:45.472Z,19.97
2018-05-02T23:58:15.104Z,20.20
